Terminal Aerodrome Forecast
Issued by NWS

Home | Current Version | Previous Version | Text Only | Print | Product List | Glossary On
Versions: 1 2 3 4 5 6 7 8 9 10 11 12 13 14
000
FTUS43 KSGF 281740 CCA
TAFJLN
TAF COR
KJLN 281740Z 2818/2918 23012KT P6SM SCT140
      TEMPO 2818/2819 BKN025
     FM290000 22008KT P6SM SCT200
     FM290200 22004KT P6SM SCT250=

USA.gov is the U.S. government's official web portal to all federal, state and local government web resources and services.